createdAt,value
2023-09-29T00:00:02.371Z,3.80
2023-09-29T00:02:31.925Z,3.80
2023-09-29T00:04:58.659Z,3.67
2023-09-29T00:07:25.349Z,3.70
2023-09-29T00:09:53.464Z,3.60
2023-09-29T00:12:20.076Z,3.80
2023-09-29T00:14:46.782Z,3.50
2023-09-29T00:17:13.486Z,3.55
2023-09-29T00:19:40.334Z,3.22
2023-09-29T00:22:06.959Z,3.28
2023-09-29T00:24:33.623Z,3.30
2023-09-29T00:27:01.869Z,3.28
2023-09-29T00:29:28.733Z,3.10
2023-09-29T00:31:55.452Z,2.80
2023-09-29T00:34:22.144Z,2.75
2023-09-29T00:36:48.800Z,2.95
2023-09-29T00:39:15.543Z,2.72
2023-09-29T00:41:42.335Z,2.78
2023-09-29T00:44:10.777Z,2.80
2023-09-29T00:46:38.160Z,2.55
2023-09-29T00:49:05.127Z,3.00
2023-09-29T00:51:32.132Z,2.63
2023-09-29T00:53:59.088Z,2.63
2023-09-29T00:56:25.984Z,2.15
2023-09-29T00:58:53.272Z,2.58
2023-09-29T01:01:22.274Z,2.92
2023-09-29T01:03:49.477Z,2.47
2023-09-29T01:06:16.351Z,2.30
2023-09-29T01:08:44.693Z,2.17
2023-09-29T01:11:12.250Z,2.38
2023-09-29T01:13:38.908Z,2.10
2023-09-29T01:16:06.593Z,2.42
2023-09-29T01:18:35.525Z,2.10
2023-09-29T01:21:02.364Z,2.60
2023-09-29T01:23:32.959Z,2.10
2023-09-29T01:25:59.864Z,2.20
2023-09-29T01:28:26.672Z,2.20
2023-09-29T01:30:53.383Z,2.88
2023-09-29T01:33:20.250Z,2.40
2023-09-29T01:35:48.670Z,2.42
2023-09-29T01:38:15.710Z,2.33
2023-09-29T01:40:43.877Z,1.98
2023-09-29T01:43:10.767Z,2.58
2023-09-29T01:45:37.673Z,2.25
2023-09-29T01:48:05.187Z,2.08
2023-09-29T01:50:32.038Z,1.92
2023-09-29T01:52:58.965Z,1.85
2023-09-29T01:55:25.828Z,2.10
2023-09-29T01:57:53.985Z,2.20
2023-09-29T02:00:21.133Z,2.30
2023-09-29T02:02:48.884Z,1.67
2023-09-29T02:05:16.748Z,2.25
2023-09-29T02:07:43.870Z,2.55
2023-09-29T02:10:11.210Z,1.63
2023-09-29T02:12:44.628Z,2.05
2023-09-29T02:15:13.089Z,1.88
2023-09-29T02:17:39.871Z,1.90
2023-09-29T02:20:07.377Z,1.95
2023-09-29T02:22:34.120Z,1.85
2023-09-29T02:25:00.835Z,1.45
2023-09-29T02:27:27.520Z,1.80
2023-09-29T02:29:54.205Z,1.95
2023-09-29T02:32:22.762Z,1.88
2023-09-29T02:34:49.792Z,1.85
2023-09-29T02:37:16.482Z,1.85
2023-09-29T02:39:43.179Z,1.60
2023-09-29T02:42:09.928Z,1.83
2023-09-29T02:44:36.751Z,1.67
2023-09-29T02:47:04.494Z,1.83
2023-09-29T02:49:32.657Z,1.90
2023-09-29T02:51:59.416Z,1.65
2023-09-29T02:54:26.216Z,1.85
2023-09-29T02:56:53.335Z,1.70
2023-09-29T02:59:20.156Z,1.98
2023-09-29T03:01:46.865Z,1.88
2023-09-29T03:04:13.683Z,1.70
2023-09-29T03:06:42.252Z,1.63
2023-09-29T03:09:09.008Z,1.67
2023-09-29T03:11:37.941Z,1.90
2023-09-29T03:14:04.695Z,1.77
2023-09-29T03:16:31.409Z,1.83
2023-09-29T03:18:59.831Z,1.73
2023-09-29T03:21:26.516Z,1.60
2023-09-29T03:23:54.816Z,1.95
2023-09-29T03:26:23.617Z,1.88
2023-09-29T03:28:50.783Z,2.20
2023-09-29T03:31:17.729Z,2.10
2023-09-29T03:33:44.970Z,1.90
2023-09-29T03:36:11.761Z,1.90
2023-09-29T03:38:38.620Z,1.85
2023-09-29T03:41:06.700Z,1.88
2023-09-29T03:43:33.573Z,1.70
2023-09-29T03:46:00.254Z,1.88
2023-09-29T03:48:27.148Z,1.60
2023-09-29T03:50:55.675Z,1.80
2023-09-29T03:53:22.525Z,2.00
2023-09-29T03:55:49.184Z,2.00
2023-09-29T03:58:17.369Z,1.70
2023-09-29T04:00:44.052Z,2.00
2023-09-29T04:03:10.818Z,2.00
2023-09-29T04:05:37.826Z,2.10
2023-09-29T04:08:05.466Z,1.80
2023-09-29T04:10:32.172Z,2.00
2023-09-29T04:12:59.000Z,2.35
2023-09-29T04:15:27.093Z,2.13
2023-09-29T04:17:53.884Z,2.08
2023-09-29T04:20:20.889Z,1.98
2023-09-29T04:22:47.650Z,1.77
2023-09-29T04:25:14.347Z,1.83
2023-09-29T04:27:41.630Z,1.85
2023-09-29T04:30:09.568Z,1.90
2023-09-29T04:32:37.884Z,2.10
2023-09-29T04:35:05.785Z,1.70
2023-09-29T04:37:32.532Z,1.90
2023-09-29T04:39:59.429Z,2.13
2023-09-29T04:42:26.221Z,1.90
2023-09-29T04:44:53.110Z,2.20
2023-09-29T04:47:19.851Z,2.00
2023-09-29T04:49:48.062Z,1.60
2023-09-29T04:52:14.789Z,1.80
2023-09-29T04:54:41.538Z,1.85
2023-09-29T04:57:08.241Z,1.85
2023-09-29T04:59:35.239Z,1.77
2023-09-29T05:02:02.125Z,2.08
2023-09-29T05:04:28.854Z,2.22
2023-09-29T05:06:56.881Z,2.28
2023-09-29T05:09:23.619Z,2.13
2023-09-29T05:11:50.431Z,1.88
2023-09-29T05:14:17.275Z,1.92
2023-09-29T05:16:44.096Z,1.88
2023-09-29T05:19:11.036Z,1.90
2023-09-29T05:21:37.915Z,2.33
2023-09-29T05:24:07.117Z,1.77
2023-09-29T05:26:33.946Z,1.73
2023-09-29T05:29:00.774Z,1.83
2023-09-29T05:31:27.709Z,1.75
2023-09-29T05:33:54.514Z,1.63
2023-09-29T05:36:21.273Z,1.95
2023-09-29T05:38:48.029Z,1.90
2023-09-29T05:41:16.196Z,1.77
2023-09-29T05:43:42.959Z,1.80
2023-09-29T05:46:09.750Z,1.80
2023-09-29T05:48:36.552Z,1.95
2023-09-29T05:51:03.585Z,1.70
2023-09-29T05:53:30.501Z,1.98
2023-09-29T05:55:57.543Z,2.05
2023-09-29T05:58:25.737Z,1.92
2023-09-29T06:00:52.599Z,1.88
2023-09-29T06:03:19.395Z,1.60
2023-09-29T06:05:46.179Z,1.70
2023-09-29T06:08:12.886Z,1.80
2023-09-29T06:10:40.223Z,1.52
2023-09-29T06:13:08.548Z,1.45
2023-09-29T06:15:38.095Z,1.45
2023-09-29T06:18:06.081Z,1.60
2023-09-29T06:20:32.919Z,2.10
2023-09-29T06:22:59.756Z,1.95
2023-09-29T06:25:26.541Z,1.58
2023-09-29T06:27:53.263Z,1.48
2023-09-29T06:30:19.984Z,1.73
2023-09-29T06:32:48.183Z,1.92
2023-09-29T06:35:15.119Z,1.70
2023-09-29T06:37:41.969Z,1.88
2023-09-29T06:40:10.240Z,1.90
2023-09-29T06:42:37.571Z,1.60
2023-09-29T06:45:06.239Z,1.70
2023-09-29T06:47:33.379Z,1.90
2023-09-29T06:50:01.506Z,2.53
2023-09-29T06:52:28.373Z,1.95
2023-09-29T06:54:55.128Z,1.92
2023-09-29T06:57:21.990Z,1.65
2023-09-29T06:59:48.922Z,2.20
2023-09-29T07:02:15.708Z,1.92
2023-09-29T07:04:43.661Z,1.73
2023-09-29T07:07:11.823Z,1.90
2023-09-29T07:09:38.596Z,2.30
2023-09-29T07:12:06.522Z,1.75
2023-09-29T07:14:33.292Z,2.10
2023-09-29T07:17:02.811Z,2.30
2023-09-29T07:19:38.219Z,1.52
2023-09-29T07:22:13.584Z,1.90
2023-09-29T07:24:40.442Z,2.20
2023-09-29T07:27:07.320Z,2.00
2023-09-29T07:29:34.998Z,1.90
2023-09-29T07:32:01.786Z,1.55
2023-09-29T07:34:31.134Z,1.77
2023-09-29T07:36:57.871Z,1.80
2023-09-29T07:39:26.110Z,1.35
2023-09-29T07:41:52.922Z,1.67
2023-09-29T07:44:20.008Z,1.63
2023-09-29T07:46:46.805Z,1.60
2023-09-29T07:49:13.512Z,1.92
2023-09-29T07:51:40.262Z,1.63
2023-09-29T07:54:07.406Z,1.55
2023-09-29T07:56:35.640Z,2.00
2023-09-29T07:59:02.407Z,1.60
2023-09-29T08:01:29.234Z,1.70
2023-09-29T08:03:56.166Z,1.65
2023-09-29T08:06:23.035Z,1.55
2023-09-29T08:08:49.957Z,1.67
2023-09-29T08:11:16.725Z,2.03
2023-09-29T08:13:44.837Z,1.50
2023-09-29T08:16:11.543Z,1.50
2023-09-29T08:18:38.467Z,1.77
2023-09-29T08:21:05.609Z,1.30
2023-09-29T08:23:32.442Z,1.60
2023-09-29T08:25:59.151Z,1.30
2023-09-29T08:28:25.862Z,1.20
2023-09-29T08:30:54.137Z,1.55
2023-09-29T08:33:28.392Z,1.40
2023-09-29T08:36:07.196Z,1.48
2023-09-29T08:38:34.067Z,1.60
2023-09-29T08:41:03.516Z,1.27
2023-09-29T08:43:30.461Z,1.55
2023-09-29T08:45:59.404Z,1.80
2023-09-29T08:48:28.148Z,1.67
2023-09-29T08:50:55.708Z,1.45
2023-09-29T08:53:24.997Z,1.52
2023-09-29T08:55:53.378Z,1.27
2023-09-29T08:58:20.713Z,1.50
2023-09-29T09:00:51.292Z,1.67
2023-09-29T09:03:21.183Z,1.73
2023-09-29T09:05:48.590Z,1.63
2023-09-29T09:08:17.572Z,1.48
2023-09-29T09:10:44.349Z,1.73
2023-09-29T09:13:11.141Z,1.58
2023-09-29T09:15:37.943Z,1.10
2023-09-29T09:18:05.265Z,2.30
2023-09-29T09:20:33.925Z,1.85
2023-09-29T09:23:02.300Z,1.40
2023-09-29T09:25:34.080Z,1.85
2023-09-29T09:28:02.261Z,2.10
2023-09-29T09:30:29.342Z,2.42
2023-09-29T09:32:56.236Z,2.03
2023-09-29T09:35:26.578Z,2.03
2023-09-29T09:37:55.358Z,1.80
2023-09-29T09:40:23.959Z,2.45
2023-09-29T09:42:52.469Z,1.92
2023-09-29T09:45:19.233Z,2.00
2023-09-29T09:47:47.288Z,2.10
2023-09-29T09:50:14.193Z,2.00
2023-09-29T09:52:41.607Z,1.98
2023-09-29T09:55:12.722Z,2.10
2023-09-29T09:57:43.364Z,2.00
2023-09-29T10:00:12.235Z,1.97
2023-09-29T10:02:41.606Z,2.05
2023-09-29T10:05:09.801Z,2.00
2023-09-29T10:07:46.521Z,2.20
2023-09-29T10:10:25.717Z,2.03
2023-09-29T10:12:54.801Z,2.10
2023-09-29T10:15:22.016Z,2.85
2023-09-29T10:17:49.048Z,2.42
2023-09-29T10:20:23.372Z,2.50
2023-09-29T10:22:50.352Z,2.42
2023-09-29T10:25:17.585Z,2.58
2023-09-29T10:27:45.880Z,2.25
2023-09-29T10:30:13.193Z,1.88
2023-09-29T10:32:40.080Z,2.10
2023-09-29T10:35:07.576Z,1.77
2023-09-29T10:37:38.984Z,2.25
2023-09-29T10:40:06.560Z,2.28
2023-09-29T10:42:34.783Z,2.22
2023-09-29T10:45:03.009Z,2.03
2023-09-29T10:47:33.522Z,2.25
2023-09-29T10:50:03.307Z,2.35
2023-09-29T10:52:30.247Z,2.15
2023-09-29T10:54:57.065Z,2.10
2023-09-29T10:57:23.915Z,2.60
2023-09-29T10:59:50.681Z,2.08
2023-09-29T11:02:18.882Z,2.38
2023-09-29T11:04:45.893Z,1.85
2023-09-29T11:07:12.593Z,2.78
2023-09-29T11:09:41.767Z,2.10
2023-09-29T11:12:16.896Z,2.30
2023-09-29T11:14:43.652Z,1.88
2023-09-29T11:17:10.367Z,1.90
2023-09-29T11:19:38.490Z,2.10
2023-09-29T11:22:05.309Z,1.65
2023-09-29T11:24:40.035Z,1.70
2023-09-29T11:27:06.751Z,1.50
2023-09-29T11:29:33.543Z,1.73
2023-09-29T11:32:00.718Z,1.70
2023-09-29T11:34:27.728Z,1.60
2023-09-29T11:36:55.852Z,1.90
2023-09-29T11:39:22.512Z,1.90
2023-09-29T11:41:49.372Z,1.83
2023-09-29T11:44:16.394Z,1.73
2023-09-29T11:46:43.395Z,1.80
2023-09-29T11:49:10.066Z,1.60
2023-09-29T11:51:36.907Z,1.85
2023-09-29T11:54:06.120Z,1.40
2023-09-29T11:56:33.372Z,2.00
2023-09-29T11:59:00.132Z,2.10
2023-09-29T12:01:26.894Z,1.75
2023-09-29T12:03:53.702Z,1.98
2023-09-29T12:06:20.560Z,1.92
2023-09-29T12:08:47.323Z,2.10
2023-09-29T12:11:15.448Z,1.50
2023-09-29T12:13:42.192Z,1.30
2023-09-29T12:16:08.905Z,1.33
2023-09-29T12:18:35.728Z,1.50
2023-09-29T12:21:07.641Z,1.45
2023-09-29T12:23:34.599Z,1.40
2023-09-29T12:26:03.535Z,1.50
2023-09-29T12:28:32.096Z,1.40
2023-09-29T12:30:58.898Z,1.20
2023-09-29T12:33:25.893Z,1.70
2023-09-29T12:35:52.739Z,1.40
2023-09-29T12:38:19.475Z,1.10
2023-09-29T12:40:46.165Z,1.33
2023-09-29T12:43:12.916Z,1.52
2023-09-29T12:45:41.021Z,1.63
2023-09-29T12:48:07.829Z,1.23
2023-09-29T12:50:36.011Z,1.60
2023-09-29T12:53:02.759Z,1.83
2023-09-29T12:55:29.591Z,1.65
2023-09-29T12:57:56.305Z,1.70
2023-09-29T13:00:23.187Z,1.95
2023-09-29T13:02:51.414Z,1.50
2023-09-29T13:05:18.311Z,1.80
2023-09-29T13:07:45.360Z,1.80
2023-09-29T13:10:12.387Z,1.70
2023-09-29T13:12:39.314Z,1.55
2023-09-29T13:15:07.594Z,1.55
2023-09-29T13:17:34.416Z,1.80
2023-09-29T13:20:02.693Z,1.75
2023-09-29T13:22:29.452Z,1.63
2023-09-29T13:24:56.728Z,1.80
2023-09-29T13:27:23.396Z,1.60
2023-09-29T13:29:50.126Z,2.22
2023-09-29T13:32:16.805Z,2.10
2023-09-29T13:34:43.520Z,1.70
2023-09-29T13:37:11.826Z,1.77
2023-09-29T13:39:38.599Z,1.88
2023-09-29T13:42:05.422Z,1.50
2023-09-29T13:44:32.124Z,1.20
2023-09-29T13:47:04.397Z,2.03
2023-09-29T13:49:32.111Z,1.70
2023-09-29T13:51:58.985Z,1.10
2023-09-29T13:54:27.286Z,1.90
2023-09-29T13:56:54.095Z,2.28
2023-09-29T13:59:20.775Z,2.50
2023-09-29T14:01:47.596Z,2.55
2023-09-29T14:04:14.528Z,2.58
2023-09-29T14:06:41.292Z,2.70
2023-09-29T14:09:16.884Z,3.13
2023-09-29T14:11:46.006Z,3.03
2023-09-29T14:14:12.902Z,2.90
2023-09-29T14:16:39.765Z,1.83
2023-09-29T14:19:06.559Z,1.92
2023-09-29T14:21:33.405Z,1.40
2023-09-29T14:24:00.578Z,1.27
2023-09-29T14:26:27.584Z,1.20
2023-09-29T14:28:56.442Z,1.50
2023-09-29T14:31:23.772Z,1.48
2023-09-29T14:33:50.662Z,1.52
2023-09-29T14:36:17.415Z,1.10
2023-09-29T14:38:44.163Z,1.20
2023-09-29T14:41:11.081Z,1.10
2023-09-29T14:43:38.114Z,1.23
2023-09-29T14:46:06.477Z,1.35
2023-09-29T14:48:35.392Z,1.30
2023-09-29T14:51:05.304Z,0.90
2023-09-29T14:53:32.431Z,0.95
2023-09-29T14:55:59.142Z,1.05
2023-09-29T14:58:26.303Z,1.23
2023-09-29T15:00:56.991Z,0.98
2023-09-29T15:03:25.226Z,1.50
2023-09-29T15:05:52.097Z,1.33
2023-09-29T15:08:18.983Z,1.35
2023-09-29T15:10:45.757Z,1.10
2023-09-29T15:13:12.559Z,1.20
2023-09-29T15:15:40.105Z,1.17
2023-09-29T15:18:07.429Z,1.48
2023-09-29T15:20:37.659Z,1.38
2023-09-29T15:23:04.800Z,1.35
2023-09-29T15:25:31.628Z,1.42
2023-09-29T15:27:58.324Z,1.50
2023-09-29T15:30:25.084Z,1.73
2023-09-29T15:32:52.172Z,1.27
2023-09-29T15:35:19.268Z,1.48
2023-09-29T15:37:47.696Z,2.03
2023-09-29T15:40:14.593Z,1.60
2023-09-29T15:42:42.466Z,1.70
2023-09-29T15:45:10.120Z,1.60
2023-09-29T15:47:36.990Z,1.92
2023-09-29T15:50:05.074Z,2.40
2023-09-29T15:52:31.813Z,2.00
2023-09-29T15:54:59.893Z,1.98
2023-09-29T15:57:28.281Z,1.98
2023-09-29T15:59:55.380Z,2.20
2023-09-29T16:02:26.776Z,2.30
2023-09-29T16:07:21.099Z,2.28
2023-09-29T16:09:47.833Z,1.95
2023-09-29T16:12:16.196Z,1.77
2023-09-29T16:14:43.296Z,2.47
2023-09-29T16:17:09.971Z,2.40
2023-09-29T16:19:36.667Z,2.50
2023-09-29T16:22:03.299Z,2.42
2023-09-29T16:24:32.202Z,2.53
2023-09-29T16:26:59.063Z,2.47
2023-09-29T16:29:27.323Z,2.10
2023-09-29T16:31:54.145Z,3.03
2023-09-29T16:34:20.984Z,3.05
2023-09-29T16:36:47.955Z,2.33
2023-09-29T16:39:14.616Z,2.33
2023-09-29T16:41:41.548Z,2.20
2023-09-29T16:44:08.401Z,2.38
2023-09-29T16:46:37.388Z,2.15
2023-09-29T16:49:04.163Z,2.05
2023-09-29T16:51:30.961Z,2.10
2023-09-29T16:53:57.954Z,2.10
2023-09-29T16:56:25.141Z,2.10
2023-09-29T16:58:52.353Z,2.65
2023-09-29T17:01:19.642Z,1.98
2023-09-29T17:03:47.968Z,2.38
2023-09-29T17:06:14.883Z,2.33
2023-09-29T17:08:41.656Z,2.30
2023-09-29T17:11:30.273Z,2.00
2023-09-29T17:22:18.264Z,2.20
2023-09-29T17:24:45.054Z,2.20
2023-09-29T17:27:11.797Z,2.10
2023-09-29T17:29:38.589Z,2.13
2023-09-29T17:32:05.739Z,1.60
2023-09-29T17:34:32.918Z,2.05
2023-09-29T17:36:59.828Z,2.30
2023-09-29T17:39:28.071Z,2.20
2023-09-29T17:41:54.885Z,2.05
2023-09-29T17:44:21.510Z,2.15
2023-09-29T17:46:48.329Z,2.10
2023-09-29T17:49:15.183Z,2.08
2023-09-29T17:51:41.946Z,2.47
2023-09-29T17:54:08.680Z,2.15
2023-09-29T17:56:36.801Z,2.42
2023-09-29T17:59:03.680Z,2.42
2023-09-29T18:01:30.397Z,2.78
2023-09-29T18:04:00.296Z,2.80
2023-09-29T18:06:27.280Z,2.55
2023-09-29T18:17:02.431Z,2.15
2023-09-29T18:19:29.335Z,2.55
2023-09-29T18:21:56.035Z,3.10
2023-09-29T18:24:23.029Z,3.00
2023-09-29T18:26:50.244Z,2.78
2023-09-29T18:29:17.022Z,3.20
2023-09-29T18:31:43.702Z,3.35
2023-09-29T18:34:11.862Z,3.13
2023-09-29T18:36:40.018Z,2.90
2023-09-29T18:39:09.044Z,3.40
2023-09-29T18:41:35.765Z,3.13
2023-09-29T18:44:02.489Z,3.90
2023-09-29T18:46:29.306Z,2.97
2023-09-29T18:48:56.282Z,3.33
2023-09-29T18:51:25.313Z,3.10
2023-09-29T18:53:52.088Z,3.35
2023-09-29T18:56:18.842Z,3.50
2023-09-29T18:58:45.993Z,3.60
2023-09-29T19:01:12.780Z,3.50
2023-09-29T19:03:39.564Z,3.35
2023-09-29T19:06:06.466Z,3.60
2023-09-29T19:08:34.654Z,3.95
2023-09-29T19:11:45.103Z,3.58
2023-09-29T19:14:12.440Z,3.42
2023-09-29T19:16:39.369Z,3.50
2023-09-29T19:19:06.383Z,3.40
2023-09-29T19:21:33.173Z,3.35
2023-09-29T19:24:01.774Z,3.78
2023-09-29T19:26:29.242Z,4.05
2023-09-29T19:29:01.450Z,3.78
2023-09-29T19:31:28.664Z,3.78
2023-09-29T19:33:56.665Z,4.00
2023-09-29T19:36:24.910Z,4.18
2023-09-29T19:38:51.722Z,4.03
2023-09-29T19:41:19.823Z,3.95
2023-09-29T19:43:46.812Z,4.30
2023-09-29T19:46:13.518Z,3.97
2023-09-29T19:48:40.501Z,4.25
2023-09-29T19:51:09.112Z,4.30
2023-09-29T19:53:36.878Z,4.80
2023-09-29T19:56:04.188Z,4.70
2023-09-29T19:58:32.361Z,4.20
2023-09-29T20:00:59.080Z,4.55
2023-09-29T20:03:25.953Z,3.92
2023-09-29T20:57:13.882Z,4.13
2023-09-29T20:59:43.512Z,3.63
2023-09-29T21:02:13.007Z,4.10
2023-09-29T21:04:41.575Z,4.07
2023-09-29T21:07:08.372Z,3.95
2023-09-29T21:09:35.270Z,4.70
2023-09-29T21:12:02.079Z,4.47
2023-09-29T21:14:31.009Z,4.05
2023-09-29T21:16:59.344Z,4.30
2023-09-29T21:19:26.115Z,3.97
2023-09-29T21:21:52.974Z,4.10
2023-09-29T21:24:19.730Z,4.13
2023-09-29T21:26:46.806Z,3.67
2023-09-29T21:29:13.568Z,3.85
2023-09-29T21:31:41.658Z,3.30
2023-09-29T21:34:08.453Z,3.63
2023-09-29T21:36:35.362Z,3.38
2023-09-29T21:39:02.242Z,3.70
2023-09-29T21:45:00.686Z,3.80
2023-09-29T21:47:28.836Z,4.45
2023-09-29T21:49:55.607Z,3.85
2023-09-29T21:52:22.363Z,3.60
2023-09-29T21:54:49.082Z,3.58
2023-09-29T21:57:19.610Z,3.47
2023-09-29T21:59:46.377Z,3.75
2023-09-29T22:02:13.120Z,3.72
2023-09-29T22:04:41.230Z,4.38
2023-09-29T22:07:08.126Z,4.18
2023-09-29T22:09:34.801Z,4.43
2023-09-29T22:12:01.803Z,4.07
2023-09-29T22:14:28.830Z,3.83
2023-09-29T22:16:55.562Z,3.90
2023-09-29T22:19:22.428Z,4.20
2023-09-29T22:21:50.508Z,4.35
2023-09-29T22:24:17.188Z,4.38
2023-09-29T22:26:43.890Z,3.90
2023-09-29T22:29:10.566Z,4.32
2023-09-29T22:31:37.273Z,3.53
2023-09-29T22:34:04.292Z,4.55
2023-09-29T22:36:31.167Z,4.30
2023-09-29T22:38:59.262Z,3.95
2023-09-29T22:41:26.153Z,4.32
2023-09-29T22:43:52.997Z,3.88
2023-09-29T22:46:19.729Z,3.83
2023-09-29T22:48:46.669Z,4.50
2023-09-29T22:51:13.494Z,4.68
2023-09-29T22:53:40.234Z,4.90
2023-09-29T22:56:13.193Z,4.75
2023-09-29T22:58:40.817Z,4.53
2023-09-29T23:01:07.659Z,4.60
2023-09-29T23:03:34.386Z,4.72
2023-09-29T23:06:01.134Z,4.63
2023-09-29T23:08:27.943Z,4.50
2023-09-29T23:10:54.605Z,4.22
2023-09-29T23:13:22.709Z,4.22
2023-09-29T23:15:49.503Z,3.92
2023-09-29T23:18:16.306Z,4.78
2023-09-29T23:20:43.143Z,4.50
2023-09-29T23:23:10.041Z,4.57
2023-09-29T23:25:36.813Z,4.35
2023-09-29T23:28:04.460Z,4.57
2023-09-29T23:30:32.693Z,4.07
2023-09-29T23:32:59.363Z,4.18
2023-09-29T23:35:26.161Z,4.32
2023-09-29T23:37:52.928Z,4.60
2023-09-29T23:40:19.892Z,4.07
2023-09-29T23:42:46.716Z,4.07
2023-09-29T23:45:13.787Z,4.60
2023-09-29T23:47:41.872Z,4.30
2023-09-29T23:50:09.079Z,4.50
2023-09-29T23:52:35.824Z,4.88
2023-09-29T23:55:02.478Z,3.80
2023-09-29T23:57:29.179Z,4.05
2023-09-29T23:59:55.928Z,3.85
